Terminal Aerodrome Forecast
Issued by NWS

Current Version | Previous Version | Text Only | Print | Product List | Glossary On
Versions: 1 2 3 4 5 6 7 8 9 10 11 12 13 14 15 16 17 18 19 20 21 22
000
FTUS42 KILM 221100
TAFCRE
TAF
KCRE 221121Z 2212/2312 03006KT 1/2SM FG VV002
      TEMPO 2212/2214 5SM BR BKN015 BKN060
     FM221400 11008KT 6SM SHRA SCT007 BKN015
     FM230000 19005KT P6SM VCSH FEW020 BKN150
     FM230600 23005KT P6SM SCT025 BKN150=

USA.gov is the U.S. government's official web portal to all federal, state and local government web resources and services.